Herington, Kansas
Current Conditions -  °F | °C
As of 6:58 PM on Monday 22 Dec 2014 (Local Time) from KFRI Reporting Station
Overcast Overcast  
Wind Chill: 45°   Ceiling: 8000
Heat Index: 45°   Visibility: 10mi
Dew Point: 36°   Wind: 3mph
Humidity: 70%   Direction: 280°W
Pressure: 29.55"   Gusts: NA
Location:  38.67°N, 96.94°W
Report Text: KFRI 230058Z AUTO 28003KT 10SM OVC080 07/02 A2955 RMK AO2 SLP008 T00740022
Loading
Personal Weather Stations






























Interactive Weather Map New forecast layout! Learn more

10-Day Weather Forecast

Advertisements
Track Severe Weather on mobile